Latest Weather Observations for Troughton Island

IDD60801

Issued at 11:05 am CST Tuesday 25 November 2014 (issued every 30 minutes, with the page automatically refreshed every 10 minutes)

About weather observations | Map of weather stations | Latest weather observations for NT | Other Formats
Station Details ID: 001007 Name: TROUGHTON ISLAND Lat: -13.75 Lon: 126.15 Height: 6.0 m
Data from the previous 72 hours. | See also: Recent months at Troughton Island
Date/Time
CST
Temp
°C
App
Temp
°C
Dew
Point
Rel
Hum
%
Delta-T
°C
Wind Press
QNH
hPa
Press
MSL
hPa
Rain
since 9 am
mm
Dir
 
Spd
km/h
Gust
km/h
Spd
kts
Gust
kts
25/11:00am 33.5 38.9 28.7 76 3.5 WSW 19 20 10 11 1009.9 - 0.0
25/10:30am 32.7 37.9 28.4 78 3.2 SW 19 22 10 12 1010.2 1010.1 0.0
25/10:00am 32.8 38.2 28.7 79 3.0 SW 19 24 10 13 1010.1 - 0.0
25/09:30am 31.6 37.8 28.8 85 2.1 WSW 15 17 8 9 1009.9 - 0.0
25/09:00am 31.1 37.2 28.1 84 2.2 WSW 13 17 7 9 1009.7 - 0.0
25/08:30am 30.4 37.1 28.4 89 1.5 W 11 15 6 8 1009.6 - 0.0
25/08:00am 30.0 35.9 27.8 88 1.6 W 13 17 7 9 1009.4 - 0.0
25/07:30am 29.4 35.5 28.1 93 0.9 W 13 15 7 8 1008.9 1008.8 0.0
25/07:00am 28.9 35.1 28.2 96 0.5 WNW 13 15 7 8 1008.6 - 0.0
25/06:30am 28.5 34.2 27.6 95 0.7 WNW 13 13 7 7 1008.3 - 0.0
25/06:00am 28.7 34.0 27.6 94 0.8 WNW 15 17 8 9 1008.0 - 0.0
25/05:30am 28.7 33.8 27.3 92 1.0 NW 15 17 8 9 1007.7 - 0.0
25/05:00am 28.8 34.1 27.6 93 0.9 NNW 15 17 8 9 1007.7 - 0.0
25/04:30am 28.8 34.0 27.4 92 1.0 NW 15 17 8 9 1007.9 1007.8 0.0
25/04:00am 28.9 34.4 27.3 91 1.2 NNW 13 17 7 9 1008.0 - 0.0
25/03:30am 29.1 34.0 27.5 91 1.2 NNW 17 20 9 11 1007.8 - 0.0
25/03:00am 29.0 34.0 27.6 92 1.0 NNW 17 20 9 11 1008.0 - 0.0
25/02:30am 29.0 34.8 27.7 93 0.9 NNW 13 15 7 8 1008.6 - 0.0
25/02:00am 28.7 34.4 27.6 94 0.8 NW 13 15 7 8 1008.8 - 0.0
25/01:30am 28.9 34.6 27.5 92 1.0 NNW 13 15 7 8 1009.0 1008.9 0.0
25/01:00am 29.1 34.1 27.7 92 1.0 NW 17 19 9 10 1009.0 - 0.0
25/12:30am 29.1 34.0 27.5 91 1.2 NW 17 19 9 10 1009.4 - 0.0
25/12:00am 29.1 34.9 27.7 92 1.0 NNW 13 17 7 9 1010.0 - 0.0
 
Date/Time
CST
Temp
°C
App
Temp
°C
Dew
Point
Rel
Hum
%
Delta-T
°C
Wind Press
QNH
hPa
Press
MSL
hPa
Rain
since 9 am
mm
Dir
 
Spd
km/h
Gust
km/h
Spd
kts
Gust
kts
24/11:30pm 29.5 35.2 27.5 89 1.4 NNW 13 17 7 9 1010.2 - 0.0
24/11:00pm 29.6 34.8 27.4 88 1.6 N 15 17 8 9 1010.2 - 0.0
24/10:30pm 29.7 34.9 27.9 90 1.3 NNW 17 20 9 11 1009.8 1009.7 0.0
24/10:00pm 29.5 34.5 28.2 93 0.9 NNW 19 20 10 11 1009.5 - 0.0
24/09:30pm 29.3 34.5 28.0 93 0.9 NNW 17 20 9 11 1009.3 - 0.0
24/09:00pm 29.5 34.3 27.9 91 1.2 NNW 19 20 10 11 1009.0 - 0.0
24/08:30pm 29.7 33.9 27.1 86 1.9 NW 19 24 10 13 1008.7 - 0.0
24/08:00pm 29.8 33.8 26.8 84 2.2 NW 19 22 10 12 1008.3 - 0.0
24/07:30pm 30.0 33.8 26.8 83 2.3 NW 20 26 11 14 1007.8 1007.7 0.0
24/07:00pm 30.4 34.5 27.2 83 2.3 NW 20 24 11 13 1007.4 - 0.0
24/06:30pm 31.4 35.8 27.3 79 3.0 NW 19 24 10 13 1007.4 - 0.0
24/06:00pm 31.7 35.7 26.7 75 3.6 WNW 19 22 10 12 1007.2 - 0.0
24/05:30pm 32.3 37.2 27.5 76 3.5 WNW 17 19 9 10 1007.1 - 0.0
24/05:00pm 32.4 37.3 26.9 73 4.0 WNW 15 19 8 10 1007.1 - 0.0
24/04:30pm 32.5 37.4 27.5 75 3.6 WNW 17 20 9 11 1007.1 1007.0 0.0
24/04:00pm 32.7 37.9 27.9 76 3.5 WNW 17 22 9 12 1007.2 - 0.0
24/03:30pm 32.9 37.5 27.9 75 3.7 W 20 22 11 12 1007.6 - 0.0
24/03:00pm 33.0 38.2 28.0 75 3.7 W 17 20 9 11 1008.1 - 0.0
24/02:30pm 32.5 37.5 27.7 76 3.5 W 17 19 9 10 1008.5 - 0.0
24/02:00pm 32.4 37.5 27.8 77 3.4 W 17 19 9 10 1008.9 - 0.0
24/01:30pm 32.9 38.1 27.9 75 3.7 W 17 19 9 10 1009.3 1009.2 0.0
24/01:00pm 32.7 38.3 27.9 76 3.5 W 15 17 8 9 1009.9 - 0.0
24/12:30pm 32.7 37.7 27.7 75 3.6 WSW 17 20 9 11 1010.2 - 0.0
24/12:00pm 33.4 38.3 28.1 74 3.9 WSW 19 20 10 11 1010.4 - 0.0
24/11:30am 33.1 38.2 28.3 76 3.5 WSW 19 20 10 11 1010.8 - 0.0
24/11:00am 33.5 38.7 28.4 74 3.8 SW 19 20 10 11 1011.1 - 0.0
24/10:30am 32.5 37.5 27.7 76 3.5 WSW 17 20 9 11 1011.3 1011.2 0.0
24/10:00am 32.3 37.6 27.5 76 3.5 WSW 15 17 8 9 1011.5 - 0.0
24/09:30am 32.1 38.3 27.8 78 3.1 WSW 11 15 6 8 1011.6 - 0.0
24/09:00am 31.8 36.9 27.3 77 3.3 WSW 15 17 8 9 1011.4 - 0.0
24/08:30am 31.2 36.4 26.9 78 3.1 W 13 15 7 8 1011.2 - 0.0
24/08:00am 30.7 36.4 27.1 81 2.6 W 11 15 6 8 1011.1 - 0.0
24/07:30am 29.7 36.2 28.1 91 1.2 W 11 13 6 7 1010.9 1010.8 0.0
24/07:00am 28.8 35.3 28.1 96 0.5 W 11 13 6 7 1010.5 - 0.0
24/06:30am 28.5 34.6 27.6 95 0.7 W 11 13 6 7 1010.2 - 0.0
24/06:00am 28.5 34.0 27.3 93 0.9 W 13 17 7 9 1009.9 - 0.0
24/05:30am 28.4 34.3 27.3 94 0.8 W 11 13 6 7 1009.7 - 0.0
24/05:00am 28.2 34.3 27.1 94 0.8 W 9 11 5 6 1009.6 - 0.0
24/04:30am 28.2 34.1 26.8 92 1.0 W 9 9 5 5 1009.4 1009.3 0.0
24/04:00am 28.4 33.9 26.8 91 1.1 WNW 11 13 6 7 1009.3 - 0.0
24/03:30am 28.4 33.7 27.0 92 1.0 WNW 13 15 7 8 1009.4 - 0.0
24/03:00am 28.3 33.5 26.9 92 1.0 WNW 13 15 7 8 1009.5 - 0.0
24/02:30am 28.4 33.7 27.0 92 1.0 NW 13 15 7 8 1009.6 - 0.0
24/02:00am 28.4 34.1 27.0 92 1.0 NW 11 13 6 7 1009.9 - 0.0
24/01:30am 28.5 33.8 26.5 89 1.4 WNW 11 13 6 7 1010.4 1010.3 0.0
24/01:00am 28.7 33.8 26.7 89 1.4 WNW 13 13 7 7 1010.7 - 0.0
24/12:30am 28.8 34.1 27.0 90 1.3 W 13 15 7 8 1011.0 - 0.0
24/12:00am 28.9 34.4 27.3 91 1.2 W 13 15 7 8 1011.3 - 0.0
 
Date/Time
CST
Temp
°C
App
Temp
°C
Dew
Point
Rel
Hum
%
Delta-T
°C
Wind Press
QNH
hPa
Press
MSL
hPa
Rain
since 9 am
mm
Dir
 
Spd
km/h
Gust
km/h
Spd
kts
Gust
kts
23/11:30pm 28.9 34.4 26.7 88 1.6 W 11 13 6 7 1011.5 - 0.0
23/11:00pm 28.6 34.0 26.6 89 1.4 NW 11 11 6 6 1011.5 - 0.0
23/10:30pm 29.0 35.1 27.0 89 1.4 W 9 11 5 6 1011.5 1011.4 0.0
23/10:00pm 28.8 34.7 26.8 89 1.4 NW 9 9 5 5 1011.2 - 0.0
23/09:30pm 29.0 34.8 26.6 87 1.7 NNW 9 11 5 6 1010.5 - 0.0
23/09:00pm 29.6 35.9 26.8 85 2.0 N 7 11 4 6 1010.2 - 0.0
23/08:30pm 29.6 35.7 27.0 86 1.9 N 9 13 5 7 1010.0 - 0.0
23/08:00pm 29.7 35.7 26.9 85 2.0 N 9 13 5 7 1009.5 - 0.0
23/07:30pm 29.8 35.3 26.8 84 2.2 N 11 13 6 7 1009.1 1009.0 0.0
23/07:00pm 30.2 35.7 26.8 82 2.4 NNW 11 13 6 7 1008.8 - 0.0
23/06:30pm 30.5 35.4 26.9 81 2.6 N 15 17 8 9 1008.4 - 0.0
23/06:00pm 31.2 36.4 26.9 78 3.1 N 13 17 7 9 1008.5 - 0.0
23/05:30pm 30.7 34.7 26.2 77 3.2 N 17 20 9 11 1007.8 - 0.0
23/05:00pm 31.8 36.1 26.6 74 3.7 NNW 17 20 9 11 1007.8 - 0.0
23/04:30pm 32.0 36.2 26.5 72 4.0 NNW 17 20 9 11 1007.7 1007.6 0.0
23/04:00pm 32.3 36.8 27.5 76 3.5 N 19 22 10 12 1007.8 - 0.0
23/03:30pm 31.4 35.6 27.1 78 3.1 N 19 24 10 13 1008.1 - 0.0
23/03:00pm 31.4 35.6 27.1 78 3.1 N 19 24 10 13 1008.4 - 0.0
23/02:30pm 31.9 36.5 27.1 76 3.5 N 17 20 9 11 1009.1 - 0.0
23/02:00pm 31.8 36.7 27.0 76 3.5 N 15 19 8 10 1009.7 - 0.0
23/01:30pm 31.6 36.4 26.8 75 3.5 N 15 20 8 11 1010.0 1009.9 0.0
23/01:00pm 32.6 37.8 27.4 74 3.8 N 15 19 8 10 1010.3 - 0.0
23/12:30pm 31.3 35.9 25.9 73 3.8 N 13 19 7 10 1010.6 - 0.0
23/12:00pm 33.3 38.3 26.6 68 4.8 NW 13 17 7 9 1010.8 - 0.0
23/11:30am 32.1 37.4 26.4 72 4.1 WNW 11 15 6 8 1011.1 - 0.0
23/11:00am 32.3 38.0 26.4 71 4.2 WSW 9 13 5 7 1011.3 - 0.0
23/10:30am 32.4 37.9 26.2 70 4.4 WSW 9 11 5 6 1011.4 1011.3 0.0
23/10:00am 32.2 37.8 26.3 71 4.2 WSW 9 11 5 6 1011.3 - 0.0
23/09:30am 31.9 37.4 26.2 72 4.1 SW 9 11 5 6 1011.4 - 0.0
23/09:00am 31.6 37.1 26.8 75 3.5 SW 11 13 6 7 1011.3 - 0.0
23/08:30am 31.0 36.6 26.9 79 3.0 SSW 11 13 6 7 1011.2 - 0.0
23/08:00am 30.9 36.3 26.6 78 3.1 SW 11 15 6 8 1010.9 - 0.0
23/07:30am 30.2 35.3 27.2 84 2.2 SW 15 17 8 9 1010.5 1010.4 0.0
23/07:00am 29.5 34.2 26.7 85 2.0 SW 15 17 8 9 1010.1 - 0.0
23/06:30am 29.0 34.7 27.0 89 1.4 SW 11 13 6 7 1009.9 - 0.0
23/06:00am 29.1 34.1 26.5 86 1.9 SW 13 15 7 8 1009.8 - 0.0
23/05:30am 29.0 34.8 27.2 90 1.3 SSW 11 13 6 7 1009.7 - 0.0
23/05:00am 28.9 35.0 27.1 90 1.3 SW 9 13 5 7 1009.5 - 0.0
23/04:30am 28.6 34.8 26.6 89 1.4 WSW 7 9 4 5 1009.4 1009.3 0.0
23/04:00am 28.7 34.8 26.5 88 1.6 SW 7 9 4 5 1009.4 - 0.0
23/03:30am 28.7 34.7 26.3 87 1.7 SSW 7 9 4 5 1009.6 - 0.0
23/03:00am 29.1 35.7 26.9 88 1.6 S 6 7 3 4 1010.1 - 0.0
23/02:30am 29.0 36.6 26.8 88 1.6 CALM 0 0 0 0 1010.4 - 0.0
23/02:00am 29.0 36.6 26.8 88 1.6 CALM 0 2 0 1 1010.4 - 0.0
23/01:30am 29.1 35.4 27.3 90 1.3 SW 9 11 5 6 1010.8 1010.7 0.0
23/01:00am 29.1 35.1 26.9 88 1.6 WSW 9 11 5 6 1010.7 - 0.0
23/12:30am 29.2 34.5 27.0 88 1.6 W 13 15 7 8 1011.0 - 0.0
23/12:00am 29.2 35.3 27.0 88 1.6 WNW 9 11 5 6 1011.4 - 0.0
 
Date/Time
CST
Temp
°C
App
Temp
°C
Dew
Point
Rel
Hum
%
Delta-T
°C
Wind Press
QNH
hPa
Press
MSL
hPa
Rain
since 9 am
mm
Dir
 
Spd
km/h
Gust
km/h
Spd
kts
Gust
kts
22/11:30pm 29.0 35.0 26.4 86 1.9 NW 7 11 4 6 1011.6 - 0.0
22/11:00pm 29.8 34.7 26.4 82 2.4 N 13 15 7 8 1011.4 - 0.0
22/10:30pm 29.8 33.9 25.8 79 2.8 N 15 17 8 9 1011.2 1011.1 0.0
22/10:00pm 29.7 34.1 26.3 82 2.4 N 15 19 8 10 1011.4 - 0.0
22/09:30pm 29.8 34.4 26.6 83 2.3 N 15 19 8 10 1011.5 - 0.0
22/09:00pm 29.8 34.8 26.6 83 2.3 N 13 20 7 11 1011.3 - 0.0
22/08:30pm 30.0 35.0 26.6 82 2.4 N 13 17 7 9 1011.0 - 0.0
22/08:00pm 30.0 35.0 26.6 82 2.4 N 13 17 7 9 1010.6 - 0.0
22/07:30pm 30.0 34.1 26.4 81 2.6 N 17 20 9 11 1010.0 1009.9 0.0
22/07:00pm 30.5 34.1 26.2 78 3.1 NNW 19 24 10 13 1009.4 - 0.0
22/06:30pm 31.1 34.1 26.1 75 3.6 NNW 22 26 12 14 1008.7 - 0.0
22/06:00pm 31.5 34.9 26.1 73 3.9 NNW 20 24 11 13 1008.5 - 0.0
22/05:30pm 31.6 35.2 26.4 74 3.7 NNW 20 24 11 13 1008.5 - 0.0
22/05:00pm 32.4 36.4 26.7 72 4.1 NW 19 22 10 12 1008.4 - 0.0
22/04:30pm 32.1 36.4 26.6 72 4.0 NNW 17 22 9 12 1008.4 1008.3 0.0
22/04:00pm 32.2 36.1 26.0 70 4.4 NNW 17 20 9 11 1009.0 - 0.0
22/03:30pm 32.3 36.6 26.1 70 4.4 NNW 15 19 8 10 1009.6 - 0.0
22/03:00pm 32.6 37.6 26.6 70 4.3 NW 13 17 7 9 1009.9 - 0.0
22/02:30pm 33.1 38.7 26.9 70 4.5 WNW 11 15 6 8 1010.1 - 0.0
22/02:00pm 32.5 37.6 26.1 69 4.6 WNW 11 15 6 8 1010.4 - 0.0
22/01:30pm 31.8 36.4 25.9 71 4.2 WNW 13 15 7 8 1010.6 1010.5 0.0
22/01:00pm 32.1 36.9 26.2 71 4.2 NW 13 15 7 8 1010.8 - 0.0

Other Formats:

Comma delimited format used in spreadsheet applications
http://www.bom.gov.au/fwo/IDD60801/IDD60801.94102.axf

JavaScript Object Notation format (JSON) in row-major order
http://www.bom.gov.au/fwo/IDD60801/IDD60801.94102.json